Time;durP1;ratioP1;P1;durP2;ratioP2;P2;SDS_P1;SDS_P2;PMS_P1;PMS_P2;Temp;Humidity;BMP_temperature;BMP_pressure;BME280_temperature;BME280_humidity;BME280_pressure;Samples;Min_cycle;Max_cycle;Signal;HPM_P1;HPM_P2
2021/06/23 00:00:47;;;;;;;5.40;4.90;;;;;;;;;;5052543;28;20415;-71
2021/06/23 00:03:13;;;;;;;6.17;4.80;;;;;;;;;;5052572;28;20411;-70
2021/06/23 00:05:39;;;;;;;4.77;4.20;;;;;;;;;;5052607;28;20427;-70
2021/06/23 00:08:05;;;;;;;4.23;3.90;;;;;;;;;;5052289;28;20478;-71
2021/06/23 00:13:36;;;;;;;7.00;4.90;;;;;;;;;;5052301;28;20570;-71
2021/06/23 00:16:05;;;;;;;7.03;4.40;;;;;;;;;;5052488;28;20431;-72
2021/06/23 00:18:32;;;;;;;7.40;5.43;;;;;;;;;;5052225;28;20403;-69
2021/06/23 00:20:58;;;;;;;13.00;5.33;;;;;;;;;;5052238;28;20501;-69
2021/06/23 00:23:24;;;;;;;11.43;5.30;;;;;;;;;;5052398;28;20407;-71
2021/06/23 00:28:53;;;;;;;6.03;5.47;;;;;;;;;;5051316;28;20523;-72
2021/06/23 00:31:19;;;;;;;6.47;5.87;;;;;;;;;;5052141;28;20823;-70
2021/06/23 00:33:48;;;;;;;7.10;6.50;;;;;;;;;;5052143;28;20475;-70
2021/06/23 00:36:14;;;;;;;9.50;7.40;;;;;;;;;;5051286;28;20426;-69
2021/06/23 00:38:40;;;;;;;11.73;7.17;;;;;;;;;;5052284;28;20465;-71
2021/06/23 00:41:06;;;;;;;7.43;6.53;;;;;;;;;;5052312;28;20407;-69
2021/06/23 00:43:32;;;;;;;7.80;5.90;;;;;;;;;;5051969;28;20418;-70
2021/06/23 00:45:58;;;;;;;11.13;6.40;;;;;;;;;;5052068;28;20419;-72
2021/06/23 00:48:28;;;;;;;8.70;6.10;;;;;;;;;;5051692;28;20535;-71
2021/06/23 00:50:55;;;;;;;8.33;6.47;;;;;;;;;;5052074;28;20450;-71
2021/06/23 00:53:21;;;;;;;6.20;5.60;;;;;;;;;;5051664;28;20517;-70
2021/06/23 00:58:51;;;;;;;7.90;7.03;;;;;;;;;;5055663;28;20441;-71
2021/06/23 01:01:17;;;;;;;9.20;6.90;;;;;;;;;;5055830;28;20423;-71
2021/06/23 01:03:43;;;;;;;5.90;5.40;;;;;;;;;;5055533;28;20438;-70
2021/06/23 01:06:09;;;;;;;6.07;5.50;;;;;;;;;;5056359;28;20446;-69
2021/06/23 01:08:36;;;;;;;9.50;5.93;;;;;;;;;;5057976;28;20418;-70
2021/06/23 01:14:06;;;;;;;5.43;5.00;;;;;;;;;;5055424;28;20544;-71
2021/06/23 01:16:34;;;;;;;6.00;5.40;;;;;;;;;;5055736;28;20442;-70
2021/06/23 01:19:01;;;;;;;6.90;6.40;;;;;;;;;;5055075;28;20418;-70
2021/06/23 01:21:28;;;;;;;6.33;5.73;;;;;;;;;;5037136;28;20439;-70
2021/06/23 01:23:54;;;;;;;6.70;5.03;;;;;;;;;;5055631;28;20429;-70
2021/06/23 01:26:20;;;;;;;5.50;5.10;;;;;;;;;;5037557;28;20443;-70
2021/06/23 01:28:47;;;;;;;6.60;6.00;;;;;;;;;;5055163;28;20477;-69
2021/06/23 01:31:15;;;;;;;7.50;6.80;;;;;;;;;;5055408;28;20426;-71
2021/06/23 01:33:40;;;;;;;7.50;6.80;;;;;;;;;;5036806;28;20567;-69
2021/06/23 01:36:07;;;;;;;7.60;6.93;;;;;;;;;;5055140;28;20506;-70
2021/06/23 01:38:33;;;;;;;9.40;7.00;;;;;;;;;;5055082;28;20481;-72
2021/06/23 01:44:02;;;;;;;10.03;6.60;;;;;;;;;;5054769;28;20512;-71
2021/06/23 01:46:28;;;;;;;6.50;6.00;;;;;;;;;;5054780;28;20423;-71
2021/06/23 01:48:57;;;;;;;8.13;6.13;;;;;;;;;;5054362;28;20765;-69
2021/06/23 01:51:24;;;;;;;10.80;7.10;;;;;;;;;;5054543;28;20431;-69
2021/06/23 01:53:50;;;;;;;6.87;6.03;;;;;;;;;;5054604;28;20890;-70
2021/06/23 01:59:20;;;;;;;9.20;8.10;;;;;;;;;;5054490;28;20468;-70
2021/06/23 02:01:52;;;;;;;7.63;7.00;;;;;;;;;;5054572;28;20510;-69
2021/06/23 02:04:37;;;;;;;7.67;7.07;;;;;;;;;;5054273;28;20913;-69
2021/06/23 02:07:13;;;;;;;8.17;7.33;;;;;;;;;;5054408;28;20886;-70
2021/06/23 02:10:01;;;;;;;8.10;7.10;;;;;;;;;;5053259;28;20776;-70
2021/06/23 02:12:30;;;;;;;8.00;7.03;;;;;;;;;;5036267;28;20470;-70
2021/06/23 02:15:00;;;;;;;7.83;6.83;;;;;;;;;;5054537;28;20419;-69
2021/06/23 02:17:27;;;;;;;7.47;6.77;;;;;;;;;;5054246;28;20433;-71
2021/06/23 02:19:54;;;;;;;7.30;6.60;;;;;;;;;;5054061;28;20849;-69
2021/06/23 02:22:25;;;;;;;10.23;7.27;;;;;;;;;;5054008;28;20419;-71
2021/06/23 02:24:52;;;;;;;8.83;7.07;;;;;;;;;;5054078;28;20894;-70
2021/06/23 02:27:18;;;;;;;7.60;6.40;;;;;;;;;;5053983;28;20451;-69
2021/06/23 02:29:46;;;;;;;10.97;7.10;;;;;;;;;;5053362;28;20469;-71
2021/06/23 02:32:14;;;;;;;7.10;6.40;;;;;;;;;;5054305;28;20760;-68
2021/06/23 02:34:41;;;;;;;8.80;7.37;;;;;;;;;;5054113;28;20783;-69
2021/06/23 02:37:08;;;;;;;7.10;6.40;;;;;;;;;;5053956;28;20472;-71
2021/06/23 02:39:34;;;;;;;7.30;6.60;;;;;;;;;;5053870;28;20426;-70
2021/06/23 02:42:00;;;;;;;7.90;7.20;;;;;;;;;;5053894;28;20916;-69
2021/06/23 02:44:26;;;;;;;11.97;6.60;;;;;;;;;;5053764;28;20415;-70
2021/06/23 02:46:52;;;;;;;7.80;7.10;;;;;;;;;;5053663;28;20411;-70
2021/06/23 02:49:19;;;;;;;8.20;7.03;;;;;;;;;;5053307;28;20478;-71
2021/06/23 02:51:45;;;;;;;7.10;6.40;;;;;;;;;;5053453;28;20471;-69
2021/06/23 02:54:12;;;;;;;13.83;7.53;;;;;;;;;;5053488;28;20478;-69
2021/06/23 02:59:42;;;;;;;7.37;6.67;;;;;;;;;;5053493;28;20767;-70
2021/06/23 03:02:08;;;;;;;8.30;7.00;;;;;;;;;;5053380;28;20897;-70
2021/06/23 03:04:34;;;;;;;6.40;5.80;;;;;;;;;;5053216;28;20438;-70
2021/06/23 03:07:07;;;;;;;8.20;5.67;;;;;;;;;;5053192;28;20411;-70
2021/06/23 03:09:33;;;;;;;6.00;5.50;;;;;;;;;;5030643;28;20423;-69
2021/06/23 03:11:59;;;;;;;7.60;5.87;;;;;;;;;;5053229;28;20524;-70
2021/06/23 03:14:25;;;;;;;5.03;4.03;;;;;;;;;;5053164;28;20870;-69
2021/06/23 03:16:51;;;;;;;5.07;4.60;;;;;;;;;;5053131;28;20419;-69
2021/06/23 03:19:17;;;;;;;5.67;5.17;;;;;;;;;;5054169;28;20454;-70
2021/06/23 03:21:43;;;;;;;4.70;4.30;;;;;;;;;;5055614;28;20419;-69
2021/06/23 03:24:09;;;;;;;5.07;4.60;;;;;;;;;;5053075;28;20762;-70
2021/06/23 03:29:39;;;;;;;3.97;3.10;;;;;;;;;;5052776;28;20414;-69
2021/06/23 03:32:07;;;;;;;5.17;3.50;;;;;;;;;;5052546;28;20418;-70
2021/06/23 03:34:33;;;;;;;3.40;3.10;;;;;;;;;;5052451;28;20415;-69
2021/06/23 03:36:59;;;;;;;3.77;3.47;;;;;;;;;;5052504;28;20414;-70
2021/06/23 03:39:25;;;;;;;3.60;2.80;;;;;;;;;;5052524;28;20836;-69
2021/06/23 03:44:54;;;;;;;2.70;2.50;;;;;;;;;;5052568;28;20410;-71
2021/06/23 03:47:20;;;;;;;2.60;2.40;;;;;;;;;;5052649;28;20415;-70
2021/06/23 03:49:47;;;;;;;2.80;2.13;;;;;;;;;;5052121;28;20471;-69
2021/06/23 03:52:13;;;;;;;1.80;1.70;;;;;;;;;;5052330;28;20426;-69
2021/06/23 03:54:39;;;;;;;2.47;1.80;;;;;;;;;;5052481;28;20459;-69
2021/06/23 04:00:09;;;;;;;4.37;3.40;;;;;;;;;;5052321;28;20429;-69
2021/06/23 04:02:35;;;;;;;5.50;5.00;;;;;;;;;;5034341;28;20845;-70
2021/06/23 04:05:01;;;;;;;5.43;4.93;;;;;;;;;;5052217;28;20415;-72
2021/06/23 04:07:27;;;;;;;6.33;5.63;;;;;;;;;;5052306;28;20427;-70
2021/06/23 04:09:52;;;;;;;5.87;4.90;;;;;;;;;;5052353;28;20722;-68
2021/06/23 04:12:18;;;;;;;6.30;4.90;;;;;;;;;;5052224;28;20443;-68
2021/06/23 04:14:44;;;;;;;5.27;4.87;;;;;;;;;;5052357;28;20438;-70
2021/06/23 04:17:11;;;;;;;5.83;5.20;;;;;;;;;;5034369;28;20445;-69
2021/06/23 04:19:37;;;;;;;5.93;5.10;;;;;;;;;;5052040;28;20472;-69
2021/06/23 04:22:03;;;;;;;5.17;4.77;;;;;;;;;;5052182;28;20953;-69
2021/06/23 04:24:29;;;;;;;4.90;4.20;;;;;;;;;;5052205;28;20490;-68
2021/06/23 04:29:58;;;;;;;8.50;3.60;;;;;;;;;;5052127;28;20422;-70
2021/06/23 04:32:24;;;;;;;4.30;3.90;;;;;;;;;;5036273;28;20462;-70
2021/06/23 04:34:50;;;;;;;7.43;3.27;;;;;;;;;;5056091;28;20431;-70
2021/06/23 04:37:16;;;;;;;4.60;2.50;;;;;;;;;;5056165;28;20472;-71
2021/06/23 04:39:42;;;;;;;3.20;1.67;;;;;;;;;;5056030;28;20451;-70
2021/06/23 04:45:13;;;;;;;1.80;1.70;;;;;;;;;;5056018;28;20414;-69
2021/06/23 04:47:39;;;;;;;3.37;1.93;;;;;;;;;;5055994;28;20506;-71
2021/06/23 04:50:09;;;;;;;2.30;2.10;;;;;;;;;;5055787;28;20407;-69
2021/06/23 04:52:35;;;;;;;2.30;2.10;;;;;;;;;;5055867;28;20557;-69
2021/06/23 04:55:02;;;;;;;1.60;1.50;;;;;;;;;;5055843;28;21019;-70
2021/06/23 05:00:31;;;;;;;2.43;1.60;;;;;;;;;;5055719;28;20433;-70
2021/06/23 05:02:57;;;;;;;1.63;1.53;;;;;;;;;;5055521;28;20414;-70
2021/06/23 05:05:23;;;;;;;2.30;1.73;;;;;;;;;;5055748;28;20464;-68
2021/06/23 05:07:49;;;;;;;1.57;1.47;;;;;;;;;;5055690;28;20741;-69
2021/06/23 05:10:15;;;;;;;1.80;1.30;;;;;;;;;;5055612;28;20460;-71
2021/06/23 05:12:41;;;;;;;2.30;1.23;;;;;;;;;;5055361;28;20493;-69
2021/06/23 05:15:07;;;;;;;2.27;1.10;;;;;;;;;;5055351;28;20434;-69
2021/06/23 05:17:33;;;;;;;2.20;1.80;;;;;;;;;;5055563;28;20501;-69
2021/06/23 05:20:00;;;;;;;1.80;1.33;;;;;;;;;;5055173;28;20445;-68
2021/06/23 05:22:26;;;;;;;1.77;1.10;;;;;;;;;;5055357;28;20442;-70
2021/06/23 05:24:52;;;;;;;1.10;1.00;;;;;;;;;;5055187;28;20407;-68
2021/06/23 05:30:22;;;;;;;1.67;1.10;;;;;;;;;;5056981;28;20422;-69
2021/06/23 05:32:48;;;;;;;0.80;0.80;;;;;;;;;;5058399;28;20581;-70
2021/06/23 05:35:14;;;;;;;1.03;0.93;;;;;;;;;;5055532;28;20446;-69
2021/06/23 05:37:40;;;;;;;1.27;1.13;;;;;;;;;;5055641;28;20453;-70
2021/06/23 05:40:06;;;;;;;2.20;1.13;;;;;;;;;;5055054;28;20615;-70
2021/06/23 05:45:36;;;;;;;1.23;0.93;;;;;;;;;;5054964;28;20483;-70
2021/06/23 05:48:02;;;;;;;1.33;0.70;;;;;;;;;;5054498;28;20619;-70
2021/06/23 05:50:28;;;;;;;4.13;0.93;;;;;;;;;;5054827;28;20416;-70
2021/06/23 05:52:54;;;;;;;0.73;0.73;;;;;;;;;;5055019;28;20466;-70
2021/06/23 05:55:23;;;;;;;1.73;1.00;;;;;;;;;;5054885;28;20460;-69
2021/06/23 06:00:52;;;;;;;1.27;0.93;;;;;;;;;;5054730;28;20479;-70
2021/06/23 06:03:18;;;;;;;3.63;1.10;;;;;;;;;;5054256;28;20884;-70
2021/06/23 06:05:44;;;;;;;1.23;1.00;;;;;;;;;;5036743;28;20859;-68
2021/06/23 06:08:10;;;;;;;2.57;1.00;;;;;;;;;;5054315;28;20407;-71
2021/06/23 06:10:36;;;;;;;1.07;0.97;;;;;;;;;;5054169;28;20427;-68
2021/06/23 06:16:06;;;;;;;1.70;1.03;;;;;;;;;;5053357;28;20446;-70
2021/06/23 06:18:32;;;;;;;3.67;1.10;;;;;;;;;;5053127;28;20917;-71
2021/06/23 06:20:58;;;;;;;1.30;1.20;;;;;;;;;;5053768;28;20439;-70
2021/06/23 06:23:25;;;;;;;1.53;1.43;;;;;;;;;;5053491;28;20462;-70
2021/06/23 06:25:51;;;;;;;4.20;2.00;;;;;;;;;;5053248;28;20773;-70
2021/06/23 06:28:17;;;;;;;2.20;1.80;;;;;;;;;;5051147;28;20418;-74
2021/06/23 06:30:43;;;;;;;1.90;1.70;;;;;;;;;;5050872;28;20423;-75
2021/06/23 06:33:09;;;;;;;4.13;2.60;;;;;;;;;;5051165;28;20828;-70
2021/06/23 06:35:36;;;;;;;1.70;1.53;;;;;;;;;;5051176;28;20470;-69
2021/06/23 06:38:02;;;;;;;1.77;1.53;;;;;;;;;;5051455;28;20421;-71
2021/06/23 06:40:28;;;;;;;3.70;1.60;;;;;;;;;;5051215;28;20498;-71
2021/06/23 06:45:57;;;;;;;2.93;2.30;;;;;;;;;;5051098;28;20417;-70
2021/06/23 06:48:24;;;;;;;2.20;2.10;;;;;;;;;;5033044;28;20474;-70
2021/06/23 06:50:51;;;;;;;2.63;1.93;;;;;;;;;;5033340;28;20427;-70
2021/06/23 06:53:17;;;;;;;2.97;1.33;;;;;;;;;;5050310;28;20463;-70
2021/06/23 06:55:43;;;;;;;2.70;1.70;;;;;;;;;;5050944;28;20498;-71
2021/06/23 07:01:13;;;;;;;1.30;1.20;;;;;;;;;;5051013;28;20781;-69
2021/06/23 07:03:39;;;;;;;1.90;1.70;;;;;;;;;;5051002;28;20407;-72
2021/06/23 07:06:05;;;;;;;3.60;2.20;;;;;;;;;;5050557;28;20781;-66
2021/06/23 07:08:31;;;;;;;2.13;1.80;;;;;;;;;;5051158;28;20414;-70
2021/06/23 07:10:57;;;;;;;3.80;1.90;;;;;;;;;;5050996;28;20982;-70
2021/06/23 07:16:26;;;;;;;2.63;2.37;;;;;;;;;;5051520;28;20422;-69
2021/06/23 07:18:53;;;;;;;2.33;2.13;;;;;;;;;;5050768;28;20423;-70
2021/06/23 07:21:19;;;;;;;1.90;1.80;;;;;;;;;;5051793;28;20893;-70
2021/06/23 07:23:45;;;;;;;1.90;1.80;;;;;;;;;;5052359;28;20422;-69
2021/06/23 07:26:12;;;;;;;1.90;1.80;;;;;;;;;;5052667;28;20797;-68
2021/06/23 07:36:43;;;;;;;1.50;1.40;;;;;;;;;;5052190;28;20739;-68
2021/06/23 07:39:11;;;;;;;1.80;1.70;;;;;;;;;;5052228;28;20422;-69
2021/06/23 07:41:38;;;;;;;1.67;1.57;;;;;;;;;;5052253;28;20440;-69
2021/06/23 07:44:04;;;;;;;2.30;2.13;;;;;;;;;;5056999;28;20443;-70
2021/06/23 07:46:37;;;;;;;2.00;1.80;;;;;;;;;;5052819;28;20588;-69
2021/06/23 07:49:04;;;;;;;2.33;2.13;;;;;;;;;;5051576;28;20977;-69
2021/06/23 07:51:47;;;;;;;1.60;1.50;;;;;;;;;;5051698;28;20426;-69
2021/06/23 07:54:19;;;;;;;3.27;1.83;;;;;;;;;;5051843;28;20581;-69
2021/06/23 08:10:30;;;;;;;2.13;1.80;;;;;;;;;;5052018;28;20418;-71
2021/06/23 08:12:58;;;;;;;1.70;1.60;;;;;;;;;;5051611;28;20450;-70
2021/06/23 08:15:28;;;;;;;3.37;1.90;;;;;;;;;;5051498;28;20426;-71
2021/06/23 08:17:54;;;;;;;2.20;1.93;;;;;;;;;;5051768;28;20407;-70
2021/06/23 08:20:20;;;;;;;1.93;1.83;;;;;;;;;;5051422;28;20423;-70
2021/06/23 08:22:46;;;;;;;2.97;2.10;;;;;;;;;;5051744;28;20848;-71
2021/06/23 08:25:13;;;;;;;2.37;2.17;;;;;;;;;;5052056;28;20415;-70
2021/06/23 08:27:39;;;;;;;4.07;1.67;;;;;;;;;;5052272;28;20518;-69
2021/06/23 08:30:06;;;;;;;2.27;1.93;;;;;;;;;;5052098;28;20495;-71
2021/06/23 08:32:32;;;;;;;3.00;1.93;;;;;;;;;;5049304;28;22382;-73
2021/06/23 08:34:58;;;;;;;1.90;1.80;;;;;;;;;;5050111;28;20454;-73
2021/06/23 08:37:24;;;;;;;3.10;2.17;;;;;;;;;;5049536;28;20484;-75
2021/06/23 08:39:50;;;;;;;2.70;2.40;;;;;;;;;;5050016;28;20893;-74
2021/06/23 08:42:16;;;;;;;3.73;1.50;;;;;;;;;;5050179;28;20804;-78
2021/06/23 08:44:42;;;;;;;3.60;1.77;;;;;;;;;;5050584;28;20425;-76
2021/06/23 08:47:08;;;;;;;3.20;2.50;;;;;;;;;;5050745;28;20894;-76
2021/06/23 08:49:34;;;;;;;2.93;2.20;;;;;;;;;;5050456;28;20561;-75
2021/06/23 08:52:00;;;;;;;1.80;1.70;;;;;;;;;;5050817;28;20460;-75
2021/06/23 08:54:29;;;;;;;2.13;1.40;;;;;;;;;;5032062;28;20577;-73
2021/06/23 08:56:55;;;;;;;6.37;2.03;;;;;;;;;;5050415;28;20498;-76
2021/06/23 09:02:25;;;;;;;2.07;1.87;;;;;;;;;;5050350;28;20492;-74
2021/06/23 09:05:05;;;;;;;1.97;1.87;;;;;;;;;;5050435;28;20411;-76
2021/06/23 09:07:48;;;;;;;1.90;1.80;;;;;;;;;;5049651;28;20913;-74
2021/06/23 09:10:26;;;;;;;2.53;1.80;;;;;;;;;;5049880;28;20419;-74
2021/06/23 09:13:02;;;;;;;3.10;1.83;;;;;;;;;;5050092;28;20466;-75
2021/06/23 09:15:46;;;;;;;1.97;1.60;;;;;;;;;;5050078;28;20418;-74
2021/06/23 09:18:21;;;;;;;1.60;1.50;;;;;;;;;;5051316;28;20411;-73
2021/06/23 09:20:48;;;;;;;1.80;1.70;;;;;;;;;;5053422;28;20433;-76
2021/06/23 09:23:14;;;;;;;1.50;1.30;;;;;;;;;;5053918;28;20441;-74
2021/06/23 09:25:45;;;;;;;1.83;1.73;;;;;;;;;;5053595;28;20420;-74
2021/06/23 09:28:20;;;;;;;2.00;1.50;;;;;;;;;;5019760;28;20445;-75
2021/06/23 09:30:47;;;;;;;2.07;1.00;;;;;;;;;;5053440;28;20845;-74
2021/06/23 09:33:26;;;;;;;2.33;1.30;;;;;;;;;;5052989;28;20555;-75
2021/06/23 09:36:01;;;;;;;3.77;1.50;;;;;;;;;;5053357;28;20423;-74
2021/06/23 09:38:33;;;;;;;2.30;1.20;;;;;;;;;;5053199;28;20979;-75
2021/06/23 09:41:00;;;;;;;1.50;1.27;;;;;;;;;;5053551;28;20424;-74
2021/06/23 09:43:36;;;;;;;1.93;1.50;;;;;;;;;;5052711;28;20445;-75
2021/06/23 09:46:12;;;;;;;1.40;1.30;;;;;;;;;;5053240;28;20418;-76
2021/06/23 09:48:38;;;;;;;1.80;1.40;;;;;;;;;;5052984;28;20470;-74
2021/06/23 09:51:18;;;;;;;1.30;1.20;;;;;;;;;;5053386;28;20426;-75
2021/06/23 09:53:44;;;;;;;1.20;1.13;;;;;;;;;;5052796;28;20481;-74
2021/06/23 09:56:26;;;;;;;4.60;1.33;;;;;;;;;;5052853;28;20407;-76
2021/06/23 09:58:55;;;;;;;1.13;1.03;;;;;;;;;;5052947;28;20469;-77
2021/06/23 10:01:21;;;;;;;1.33;0.87;;;;;;;;;;5052814;28;20449;-74
2021/06/23 10:03:54;;;;;;;1.00;0.93;;;;;;;;;;5035638;28;20445;-79
2021/06/23 10:06:28;;;;;;;1.50;0.80;;;;;;;;;;5054415;28;20419;-74
2021/06/23 10:09:11;;;;;;;0.80;0.80;;;;;;;;;;5036973;28;20644;-75
2021/06/23 10:11:38;;;;;;;1.57;0.80;;;;;;;;;;5034776;28;20431;-74
2021/06/23 10:14:05;;;;;;;1.20;0.80;;;;;;;;;;5053275;28;20466;-76
2021/06/23 10:16:31;;;;;;;1.60;1.20;;;;;;;;;;5053263;28;20447;-75
2021/06/23 10:18:57;;;;;;;0.93;0.90;;;;;;;;;;5052622;28;20501;-75
2021/06/23 10:21:23;;;;;;;1.57;0.73;;;;;;;;;;5051619;28;20975;-74
2021/06/23 10:23:50;;;;;;;0.80;0.60;;;;;;;;;;5047530;28;20448;-74
2021/06/23 10:26:18;;;;;;;0.50;0.50;;;;;;;;;;5050380;28;20498;-73
2021/06/23 10:28:46;;;;;;;0.80;0.67;;;;;;;;;;5050570;28;20423;-73
2021/06/23 10:31:13;;;;;;;1.10;0.70;;;;;;;;;;5051207;28;20412;-75
2021/06/23 10:33:39;;;;;;;1.30;0.90;;;;;;;;;;5033151;28;20493;-78
2021/06/23 10:36:06;;;;;;;1.00;0.60;;;;;;;;;;5050328;28;20415;-74
2021/06/23 10:38:33;;;;;;;1.00;0.70;;;;;;;;;;5051350;28;20427;-75
2021/06/23 10:40:59;;;;;;;0.50;0.50;;;;;;;;;;5051828;28;20419;-77
2021/06/23 10:43:25;;;;;;;1.10;0.77;;;;;;;;;;5033557;28;20937;-75
2021/06/23 10:45:53;;;;;;;0.50;0.40;;;;;;;;;;5051769;28;20419;-75
2021/06/23 10:48:19;;;;;;;0.90;0.60;;;;;;;;;;5051492;28;20630;-77
2021/06/23 10:50:45;;;;;;;1.07;0.37;;;;;;;;;;5051719;28;20895;-74
2021/06/23 10:53:31;;;;;;;1.00;0.57;;;;;;;;;;5052590;28;21018;-75
2021/06/23 10:55:58;;;;;;;0.80;0.47;;;;;;;;;;5052622;28;20937;-75
2021/06/23 10:58:28;;;;;;;0.50;0.40;;;;;;;;;;5052900;28;20423;-74
2021/06/23 11:01:05;;;;;;;0.60;0.40;;;;;;;;;;5053291;28;20965;-75
2021/06/23 11:03:31;;;;;;;1.37;0.53;;;;;;;;;;5053612;28;20562;-74
2021/06/23 11:05:57;;;;;;;0.60;0.60;;;;;;;;;;5035991;28;20947;-74
2021/06/23 11:08:34;;;;;;;0.73;0.73;;;;;;;;;;5053603;28;20492;-74
2021/06/23 11:11:07;;;;;;;2.70;0.87;;;;;;;;;;5053971;28;20849;-75
2021/06/23 11:13:34;;;;;;;1.50;0.80;;;;;;;;;;5053551;28;20561;-73
2021/06/23 11:16:00;;;;;;;0.57;0.50;;;;;;;;;;5052842;28;20422;-76
2021/06/23 11:18:31;;;;;;;1.17;0.57;;;;;;;;;;5053015;28;20878;-75
2021/06/23 11:20:58;;;;;;;1.83;0.50;;;;;;;;;;5053011;28;20415;-77
2021/06/23 11:23:43;;;;;;;1.63;0.70;;;;;;;;;;5052690;28;20414;-77
2021/06/23 11:26:10;;;;;;;0.40;0.30;;;;;;;;;;5053235;28;20403;-75
2021/06/23 11:28:37;;;;;;;2.07;0.80;;;;;;;;;;5052862;28;20404;-75
2021/06/23 11:31:06;;;;;;;0.80;0.50;;;;;;;;;;5053215;28;20411;-75
2021/06/23 11:33:38;;;;;;;0.50;0.40;;;;;;;;;;5053080;28;20532;-76
2021/06/23 11:36:08;;;;;;;0.50;0.50;;;;;;;;;;5051997;28;20407;-74
2021/06/23 11:38:35;;;;;;;0.70;0.47;;;;;;;;;;5052278;28;20446;-76
2021/06/23 11:41:01;;;;;;;2.77;0.53;;;;;;;;;;5052256;28;20407;-76
2021/06/23 11:43:28;;;;;;;0.77;0.53;;;;;;;;;;5052386;28;20415;-75
2021/06/23 11:45:54;;;;;;;0.50;0.40;;;;;;;;;;5053013;28;20505;-74
2021/06/23 11:48:20;;;;;;;0.60;0.57;;;;;;;;;;5052381;28;20478;-75
2021/06/23 11:50:47;;;;;;;0.50;0.50;;;;;;;;;;5052097;28;20423;-75
2021/06/23 11:53:16;;;;;;;1.57;0.50;;;;;;;;;;5052123;28;20988;-74
2021/06/23 11:55:43;;;;;;;0.90;0.40;;;;;;;;;;5052963;28;20419;-75
2021/06/23 11:58:09;;;;;;;0.53;0.40;;;;;;;;;;5052714;28;20419;-74
2021/06/23 12:03:38;;;;;;;0.80;0.60;;;;;;;;;;5050510;28;20498;-78
2021/06/23 12:06:05;;;;;;;0.60;0.50;;;;;;;;;;5051328;28;20426;-74
2021/06/23 12:08:31;;;;;;;0.73;0.60;;;;;;;;;;5032658;28;20427;-77
2021/06/23 12:10:57;;;;;;;2.23;0.63;;;;;;;;;;5051157;28;20426;-75
2021/06/23 12:19:11;;;;;;;0.50;0.40;;;;;;;;;;5050754;28;20759;-71
2021/06/23 12:21:37;;;;;;;0.80;0.70;;;;;;;;;;5032781;28;20427;-71
2021/06/23 12:24:03;;;;;;;1.90;0.80;;;;;;;;;;5050610;28;20910;-70
2021/06/23 12:26:29;;;;;;;0.50;0.47;;;;;;;;;;5050568;28;20422;-70
2021/06/23 12:28:55;;;;;;;0.60;0.60;;;;;;;;;;5050203;28;20522;-71
2021/06/23 12:31:22;;;;;;;1.17;0.87;;;;;;;;;;5033009;28;20943;-72
2021/06/23 12:33:48;;;;;;;2.20;0.70;;;;;;;;;;5050381;28;20466;-70
2021/06/23 12:36:15;;;;;;;0.70;0.50;;;;;;;;;;5051224;28;20426;-71
2021/06/23 12:38:41;;;;;;;0.80;0.70;;;;;;;;;;5032298;28;20874;-71
2021/06/23 12:41:06;;;;;;;1.60;0.60;;;;;;;;;;5050142;28;20422;-69
2021/06/23 12:43:33;;;;;;;1.20;0.80;;;;;;;;;;5049941;28;20424;-69
2021/06/23 12:45:59;;;;;;;1.47;0.60;;;;;;;;;;5030780;28;20423;-71
2021/06/23 12:48:26;;;;;;;1.33;0.63;;;;;;;;;;5045934;28;20482;-71
2021/06/23 12:50:52;;;;;;;1.33;0.60;;;;;;;;;;5046412;28;20421;-71
2021/06/23 12:53:18;;;;;;;0.60;0.40;;;;;;;;;;5048066;28;20844;-72
2021/06/23 12:55:44;;;;;;;0.67;0.50;;;;;;;;;;5050091;28;20821;-70
2021/06/23 12:58:10;;;;;;;0.70;0.63;;;;;;;;;;5049487;28;20415;-71
2021/06/23 13:03:40;;;;;;;1.00;0.70;;;;;;;;;;5053639;28;20432;-71
2021/06/23 13:06:07;;;;;;;1.60;1.00;;;;;;;;;;5054056;28;20851;-72
2021/06/23 13:08:33;;;;;;;1.80;0.57;;;;;;;;;;5053797;28;20419;-71
2021/06/23 13:10:59;;;;;;;0.90;0.63;;;;;;;;;;5053620;28;20411;-72
2021/06/23 13:13:26;;;;;;;0.83;0.83;;;;;;;;;;5053350;28;20462;-70
2021/06/23 13:18:56;;;;;;;1.30;0.83;;;;;;;;;;5053266;28;20504;-72
2021/06/23 13:21:23;;;;;;;0.60;0.50;;;;;;;;;;5053529;28;20430;-72
2021/06/23 13:23:49;;;;;;;0.70;0.60;;;;;;;;;;5053368;28;20443;-71
2021/06/23 13:26:15;;;;;;;0.87;0.70;;;;;;;;;;5053506;28;20414;-71
2021/06/23 13:28:41;;;;;;;0.67;0.60;;;;;;;;;;5053347;28;20411;-72
2021/06/23 13:31:07;;;;;;;1.17;1.00;;;;;;;;;;5035693;28;20461;-71
2021/06/23 13:33:34;;;;;;;0.80;0.63;;;;;;;;;;5053322;28;20825;-71
2021/06/23 13:36:01;;;;;;;0.80;0.80;;;;;;;;;;5053527;28;20755;-72
2021/06/23 13:38:27;;;;;;;1.43;1.00;;;;;;;;;;5048703;28;20423;-71
2021/06/23 13:40:54;;;;;;;3.30;1.40;;;;;;;;;;5053217;28;20482;-71
2021/06/23 13:43:21;;;;;;;0.90;0.90;;;;;;;;;;5053226;28;20445;-70
2021/06/23 13:48:50;;;;;;;1.63;1.37;;;;;;;;;;5051827;28;20517;-70
2021/06/23 13:51:16;;;;;;;1.43;1.20;;;;;;;;;;5052224;28;20423;-71
2021/06/23 13:53:42;;;;;;;1.40;1.03;;;;;;;;;;5034800;28;20486;-71
2021/06/23 13:56:08;;;;;;;2.10;1.30;;;;;;;;;;5035064;28;20495;-69
2021/06/23 13:58:34;;;;;;;2.43;1.30;;;;;;;;;;5051338;28;20529;-69
2021/06/23 14:04:04;;;;;;;2.17;1.40;;;;;;;;;;5050703;28;20450;-71
2021/06/23 14:06:30;;;;;;;3.80;1.07;;;;;;;;;;5033837;28;20419;-70
2021/06/23 14:08:56;;;;;;;1.80;1.00;;;;;;;;;;5052375;28;20508;-71
2021/06/23 14:11:22;;;;;;;2.70;1.57;;;;;;;;;;5052146;28;20453;-70
2021/06/23 14:13:48;;;;;;;1.77;1.60;;;;;;;;;;5051601;28;21035;-70
2021/06/23 14:19:18;;;;;;;3.43;1.63;;;;;;;;;;5051499;28;20492;-68
2021/06/23 14:21:44;;;;;;;2.00;1.40;;;;;;;;;;5051619;28;20415;-69
2021/06/23 14:24:10;;;;;;;2.90;1.60;;;;;;;;;;5051602;28;20455;-69
2021/06/23 14:26:39;;;;;;;1.80;1.50;;;;;;;;;;5051526;28;20418;-69
2021/06/23 14:29:05;;;;;;;1.70;1.60;;;;;;;;;;5051731;28;20407;-72
2021/06/23 14:31:31;;;;;;;1.40;1.30;;;;;;;;;;5049614;28;20512;-73
2021/06/23 14:33:57;;;;;;;2.67;1.63;;;;;;;;;;5051920;28;20812;-70
2021/06/23 14:36:24;;;;;;;4.50;1.63;;;;;;;;;;5052217;28;20493;-72
2021/06/23 14:38:50;;;;;;;1.63;1.23;;;;;;;;;;5051810;28;20468;-71
2021/06/23 14:41:16;;;;;;;1.97;1.10;;;;;;;;;;5051618;28;20476;-70
2021/06/23 14:43:42;;;;;;;1.43;1.33;;;;;;;;;;5051769;28;20407;-72
2021/06/23 14:49:11;;;;;;;2.03;1.57;;;;;;;;;;5050914;28;20485;-71
2021/06/23 14:51:38;;;;;;;2.97;1.37;;;;;;;;;;5033026;28;20423;-70
2021/06/23 14:54:04;;;;;;;2.93;1.50;;;;;;;;;;5050602;28;20467;-71
2021/06/23 14:56:30;;;;;;;3.00;1.63;;;;;;;;;;5050675;28;20439;-71
2021/06/23 14:58:56;;;;;;;2.20;1.37;;;;;;;;;;5050624;28;20802;-68
2021/06/23 15:04:26;;;;;;;2.67;1.60;;;;;;;;;;5051063;28;20429;-68
2021/06/23 15:06:52;;;;;;;2.00;1.80;;;;;;;;;;5050707;28;20743;-71
2021/06/23 15:09:18;;;;;;;2.47;1.57;;;;;;;;;;5051090;28;20502;-72
2021/06/23 15:11:44;;;;;;;1.83;1.73;;;;;;;;;;5033284;28;20448;-71
2021/06/23 15:14:10;;;;;;;2.13;1.93;;;;;;;;;;5033061;28;20854;-71
2021/06/23 15:19:40;;;;;;;2.83;2.63;;;;;;;;;;5051823;28;20410;-69
2021/06/23 15:22:06;;;;;;;7.30;3.00;;;;;;;;;;5051503;28;20880;-71
2021/06/23 15:24:32;;;;;;;3.20;2.90;;;;;;;;;;5051720;28;20407;-71
2021/06/23 15:26:58;;;;;;;3.43;3.23;;;;;;;;;;5051463;28;20407;-71
2021/06/23 15:29:24;;;;;;;4.40;3.80;;;;;;;;;;5052185;28;20410;-70
2021/06/23 15:34:54;;;;;;;3.83;3.60;;;;;;;;;;5052337;28;20437;-69
2021/06/23 15:37:20;;;;;;;4.47;3.57;;;;;;;;;;5034735;28;20427;-69
2021/06/23 15:39:46;;;;;;;4.93;4.13;;;;;;;;;;5052340;28;20419;-69
2021/06/23 15:42:12;;;;;;;4.10;3.50;;;;;;;;;;5052626;28;20442;-69
2021/06/23 15:44:38;;;;;;;4.80;3.97;;;;;;;;;;5052328;28;20411;-70
2021/06/23 15:50:09;;;;;;;4.07;3.77;;;;;;;;;;5052263;28;20950;-70
2021/06/23 15:52:35;;;;;;;5.20;4.27;;;;;;;;;;5052015;28;20430;-72
2021/06/23 15:55:02;;;;;;;4.10;3.80;;;;;;;;;;5052293;28;20426;-71
2021/06/23 15:57:28;;;;;;;6.93;4.63;;;;;;;;;;5052189;28;20403;-69
2021/06/23 15:59:54;;;;;;;4.80;4.50;;;;;;;;;;5052143;28;20904;-70
2021/06/23 16:02:21;;;;;;;5.70;5.20;;;;;;;;;;5051932;28;20752;-74
2021/06/23 16:04:47;;;;;;;5.87;5.37;;;;;;;;;;5051781;28;20426;-71
2021/06/23 16:07:13;;;;;;;4.93;4.43;;;;;;;;;;5051948;28;20426;-72
2021/06/23 16:09:39;;;;;;;5.60;5.20;;;;;;;;;;5034401;28;20430;-70
2021/06/23 16:12:07;;;;;;;5.43;5.00;;;;;;;;;;5033650;28;20431;-71
2021/06/23 16:14:33;;;;;;;5.70;5.30;;;;;;;;;;5051641;28;20470;-71
2021/06/23 16:20:03;;;;;;;6.37;5.50;;;;;;;;;;5051848;28;20470;-71
2021/06/23 16:22:30;;;;;;;6.30;5.70;;;;;;;;;;5051842;28;20418;-71
2021/06/23 16:24:57;;;;;;;5.47;4.97;;;;;;;;;;5052032;28;20538;-71
2021/06/23 16:27:23;;;;;;;6.43;5.87;;;;;;;;;;5052625;28;20905;-70
2021/06/23 16:29:49;;;;;;;6.10;5.50;;;;;;;;;;5058091;28;20460;-70
2021/06/23 16:35:20;;;;;;;7.67;6.03;;;;;;;;;;5056394;28;20450;-71
2021/06/23 16:37:46;;;;;;;5.80;5.30;;;;;;;;;;5056127;28;20501;-70
2021/06/23 16:40:13;;;;;;;7.57;6.87;;;;;;;;;;5056161;28;20494;-71
2021/06/23 16:42:39;;;;;;;6.93;6.23;;;;;;;;;;5056234;28;20407;-72
2021/06/23 16:45:06;;;;;;;13.93;6.93;;;;;;;;;;5055987;28;20438;-71
2021/06/23 16:47:32;;;;;;;8.97;7.70;;;;;;;;;;5055756;28;20792;-69
2021/06/23 16:49:58;;;;;;;8.37;7.67;;;;;;;;;;5055098;28;20532;-72
2021/06/23 16:52:24;;;;;;;8.50;7.70;;;;;;;;;;5055709;28;20763;-71
2021/06/23 16:54:51;;;;;;;7.23;6.53;;;;;;;;;;5055493;28;20469;-69